Time;durP1;ratioP1;P1;durP2;ratioP2;P2;SDS_P1;SDS_P2;PMS_P1;PMS_P2;Temp;Humidity;BMP_temperature;BMP_pressure;BME280_temperature;BME280_humidity;BME280_pressure;Samples;Min_cycle;Max_cycle;Signal;HPM_P1;HPM_P2
2023/03/22 00:01:45;;;;;;;0.40;0.40;;;;;;;6.51;100.00;99399.25;5048225;28;20022;-67
2023/03/22 00:04:10;;;;;;;0.45;0.45;;;;;;;6.53;100.00;99393.22;5048291;28;20030;-67
2023/03/22 00:06:36;;;;;;;0.40;0.40;;;;;;;6.57;100.00;99394.91;5048516;28;20025;-67
2023/03/22 00:09:01;;;;;;;0.47;0.47;;;;;;;6.59;100.00;99388.88;5048042;28;20561;-67
2023/03/22 00:11:27;;;;;;;0.40;0.40;;;;;;;6.63;100.00;99375.94;5046647;28;20024;-68
2023/03/22 00:13:53;;;;;;;0.40;0.40;;;;;;;6.64;100.00;99385.41;5048135;28;20028;-68
2023/03/22 00:16:20;;;;;;;0.40;0.40;;;;;;;6.65;100.00;99381.94;5047978;28;20046;-68
2023/03/22 00:18:45;;;;;;;0.50;0.50;;;;;;;6.67;100.00;99375.06;5048142;28;20033;-68
2023/03/22 00:21:13;;;;;;;0.50;0.50;;;;;;;6.68;100.00;99373.31;5047979;28;20099;-68
2023/03/22 00:23:39;;;;;;;0.50;0.50;;;;;;;6.64;100.00;99374.22;5047767;28;20026;-68
2023/03/22 00:26:05;;;;;;;0.40;0.40;;;;;;;6.68;100.00;99369.03;5047994;28;20018;-67
2023/03/22 00:28:31;;;;;;;0.40;0.40;;;;;;;6.62;100.00;99366.50;5047615;28;20032;-67
2023/03/22 00:30:59;;;;;;;0.40;0.40;;;;;;;6.64;100.00;99357.03;5047740;28;20040;-67
2023/03/22 00:33:25;;;;;;;0.50;0.50;;;;;;;6.64;100.00;99358.75;5046796;28;20096;-67
2023/03/22 00:35:57;;;;;;;0.43;0.43;;;;;;;6.62;100.00;99361.34;5047734;28;20468;-67
2023/03/22 00:38:23;;;;;;;0.40;0.40;;;;;;;6.57;100.00;99347.63;5047895;28;20032;-69
2023/03/22 00:40:48;;;;;;;0.40;0.40;;;;;;;6.63;100.00;99355.31;5047634;28;20021;-68
2023/03/22 00:43:15;;;;;;;0.40;0.40;;;;;;;6.52;100.00;99345.09;5047424;28;20028;-67
2023/03/22 00:45:41;;;;;;;0.40;0.40;;;;;;;6.61;100.00;99356.19;5047420;28;20381;-68
2023/03/22 00:48:08;;;;;;;0.73;0.73;;;;;;;6.59;100.00;99350.19;5047534;28;20029;-67
2023/03/22 00:50:34;;;;;;;0.40;0.40;;;;;;;6.56;100.00;99340.78;5047401;28;20056;-67
2023/03/22 00:53:00;;;;;;;0.50;0.50;;;;;;;6.41;100.00;99319.41;5046135;28;20045;-68
2023/03/22 00:55:25;;;;;;;0.50;0.50;;;;;;;6.52;100.00;99326.19;5047341;28;20385;-68
2023/03/22 00:57:50;;;;;;;0.40;0.40;;;;;;;6.43;100.00;99315.09;5047277;28;20022;-68
2023/03/22 01:00:16;;;;;;;0.40;0.40;;;;;;;6.52;100.00;99333.91;5047362;28;20385;-67
2023/03/22 01:02:42;;;;;;;0.40;0.40;;;;;;;6.50;100.00;99327.94;5047342;28;20026;-67
2023/03/22 01:05:08;;;;;;;0.50;0.50;;;;;;;6.47;100.00;99315.06;5047186;28;20501;-67
2023/03/22 01:07:37;;;;;;;0.50;0.50;;;;;;;6.44;100.00;99321.09;5047104;28;20021;-67
2023/03/22 01:10:04;;;;;;;0.43;0.43;;;;;;;6.39;100.00;99315.16;5062272;28;20371;-68
2023/03/22 01:12:29;;;;;;;0.40;0.40;;;;;;;6.31;100.00;99318.63;5046937;28;20024;-68
2023/03/22 01:14:55;;;;;;;0.50;0.50;;;;;;;6.30;100.00;99323.81;5045925;28;20025;-68
2023/03/22 01:17:20;;;;;;;0.40;0.40;;;;;;;6.23;100.00;99330.72;5046539;28;20046;-68
2023/03/22 01:19:46;;;;;;;0.50;0.50;;;;;;;6.18;100.00;99320.44;5062011;28;20093;-68
2023/03/22 01:22:11;;;;;;;0.40;0.40;;;;;;;6.14;100.00;99335.94;5046648;28;20034;-68
2023/03/22 01:24:37;;;;;;;0.40;0.40;;;;;;;6.08;100.00;99323.97;5046568;28;20017;-69
2023/03/22 01:27:02;;;;;;;0.50;0.50;;;;;;;5.91;100.00;99301.72;5046585;28;20080;-68
2023/03/22 01:29:28;;;;;;;0.40;0.40;;;;;;;5.98;100.00;99325.72;5045273;28;20017;-69
2023/03/22 01:31:53;;;;;;;0.40;0.40;;;;;;;5.85;100.00;99293.22;5046400;28;20053;-69
2023/03/22 01:34:18;;;;;;;0.40;0.40;;;;;;;5.93;100.00;99315.47;5045301;28;20383;-68
2023/03/22 01:36:44;;;;;;;0.50;0.50;;;;;;;5.92;100.00;99307.75;5046587;28;20481;-70
2023/03/22 01:39:10;;;;;;;0.40;0.40;;;;;;;5.92;100.00;99297.44;5046339;28;20045;-70
2023/03/22 01:41:36;;;;;;;0.47;0.47;;;;;;;5.89;100.00;99295.75;5046212;28;20022;-68
2023/03/22 01:44:17;;;;;;;0.50;0.50;;;;;;;5.88;100.00;99296.59;5046394;28;20113;-68
2023/03/22 01:46:44;;;;;;;0.43;0.43;;;;;;;5.83;100.00;99288.91;5046414;28;20466;-67
2023/03/22 01:49:16;;;;;;;0.40;0.40;;;;;;;5.87;100.00;99281.16;5046270;28;20093;-68
2023/03/22 01:51:45;;;;;;;0.50;0.50;;;;;;;5.86;100.00;99276.88;5046211;28;20053;-69
2023/03/22 01:54:18;;;;;;;0.50;0.50;;;;;;;5.75;100.00;99253.78;5046291;28;20034;-69
2023/03/22 01:56:43;;;;;;;0.43;0.43;;;;;;;5.84;100.00;99271.72;5046044;28;20022;-69
2023/03/22 01:59:13;;;;;;;0.40;0.40;;;;;;;5.83;100.00;99267.47;5044595;28;20027;-69
2023/03/22 02:01:39;;;;;;;0.40;0.40;;;;;;;5.81;100.00;99264.03;5046155;28;20025;-70
2023/03/22 02:04:11;;;;;;;0.45;0.45;;;;;;;5.84;100.00;99248.56;5046120;28;20098;-70
2023/03/22 02:06:37;;;;;;;0.40;0.40;;;;;;;5.82;100.00;99248.56;5046098;28;20030;-70
2023/03/22 02:09:09;;;;;;;0.40;0.40;;;;;;;5.84;100.00;99240.81;5045882;28;20036;-70
2023/03/22 02:11:41;;;;;;;0.40;0.40;;;;;;;5.85;100.00;99250.25;5045739;28;20045;-68
2023/03/22 02:14:25;;;;;;;0.50;0.50;;;;;;;5.86;100.00;99249.41;5045797;28;20079;-69
2023/03/22 02:17:09;;;;;;;0.40;0.40;;;;;;;5.87;100.00;99253.69;5045535;28;20075;-69
2023/03/22 02:20:09;;;;;;;0.40;0.40;;;;;;;5.88;100.00;99239.09;5060991;28;20026;-69
2023/03/22 02:22:44;;;;;;;0.40;0.40;;;;;;;5.85;100.00;99252.81;5045680;28;20614;-69
2023/03/22 02:25:16;;;;;;;0.40;0.40;;;;;;;5.84;100.00;99243.41;5045768;28;20029;-68
2023/03/22 02:28:17;;;;;;;0.40;0.40;;;;;;;5.86;100.00;99240.81;5060390;28;20051;-69
2023/03/22 02:30:58;;;;;;;0.40;0.40;;;;;;;5.83;100.00;99239.97;5045585;28;20040;-69
2023/03/22 02:33:58;;;;;;;0.40;0.40;;;;;;;5.84;100.00;99251.13;5045539;28;20021;-69
2023/03/22 02:36:42;;;;;;;0.40;0.40;;;;;;;5.82;100.00;99243.41;5038355;28;20044;-68
2023/03/22 02:39:11;;;;;;;0.57;0.57;;;;;;;5.83;100.00;99252.84;5060935;28;20033;-69
2023/03/22 02:41:50;;;;;;;0.50;0.50;;;;;;;5.82;100.00;99245.13;5045057;28;20029;-68
2023/03/22 02:44:36;;;;;;;0.50;0.50;;;;;;;5.81;100.00;99246.00;5044337;28;20029;-68
2023/03/22 02:47:27;;;;;;;0.60;0.60;;;;;;;5.76;100.00;99245.16;5060627;28;20420;-68
2023/03/22 02:50:21;;;;;;;0.40;0.40;;;;;;;5.79;100.00;99246.00;5045171;28;20497;-67
2023/03/22 02:53:00;;;;;;;0.45;0.45;;;;;;;5.75;100.00;99238.31;5045092;28;20064;-69
2023/03/22 02:55:30;;;;;;;0.40;0.40;;;;;;;5.76;100.00;99242.59;5044821;28;20032;-68
2023/03/22 02:58:11;;;;;;;0.50;0.50;;;;;;;5.80;100.00;99241.69;5044994;28;20021;-69
2023/03/22 03:00:38;;;;;;;0.40;0.40;;;;;;;5.79;100.00;99235.72;5045004;28;20036;-68
2023/03/22 03:03:11;;;;;;;0.40;0.40;;;;;;;5.81;100.00;99209.94;5044853;28;20021;-68
2023/03/22 03:05:43;;;;;;;0.40;0.40;;;;;;;5.81;100.00;99212.53;5043948;28;20061;-68
2023/03/22 03:08:11;;;;;;;0.60;0.60;;;;;;;5.83;100.00;99228.81;5045201;28;20022;-68
2023/03/22 03:10:39;;;;;;;0.50;0.50;;;;;;;5.75;100.00;99210.00;5044928;28;20029;-68
2023/03/22 03:13:09;;;;;;;0.40;0.40;;;;;;;5.87;100.00;99227.91;5044901;28;20026;-69
2023/03/22 03:15:38;;;;;;;0.47;0.47;;;;;;;5.89;100.00;99220.19;5045147;28;20030;-67
2023/03/22 03:18:37;;;;;;;0.50;0.50;;;;;;;5.90;100.00;99216.72;5044795;28;20057;-67
2023/03/22 03:21:29;;;;;;;0.50;0.50;;;;;;;5.91;100.00;99210.72;5044902;28;20029;-68
2023/03/22 03:24:10;;;;;;;0.50;0.50;;;;;;;5.95;100.00;99210.69;5045019;28;20055;-68
2023/03/22 03:26:46;;;;;;;0.50;0.50;;;;;;;5.99;100.00;99208.06;5044796;28;20017;-68
2023/03/22 03:29:45;;;;;;;0.70;0.70;;;;;;;6.06;100.00;99212.31;5044878;28;20081;-68
2023/03/22 03:32:16;;;;;;;0.50;0.50;;;;;;;6.08;100.00;99210.59;5044828;28;20030;-68
2023/03/22 03:34:44;;;;;;;0.50;0.50;;;;;;;6.10;100.00;99206.28;5044792;28;20029;-67
2023/03/22 03:37:18;;;;;;;0.50;0.50;;;;;;;6.12;100.00;99196.81;5044683;28;20021;-68
2023/03/22 03:39:51;;;;;;;0.50;0.50;;;;;;;6.13;100.00;99190.81;5060128;28;20040;-68
2023/03/22 03:42:17;;;;;;;0.40;0.40;;;;;;;6.17;100.00;99194.19;5044575;28;20032;-69
2023/03/22 03:44:44;;;;;;;0.50;0.50;;;;;;;6.16;100.00;99183.03;5044565;28;20077;-67
2023/03/22 03:47:11;;;;;;;0.40;0.40;;;;;;;6.07;100.00;99157.38;5044663;28;20025;-67
2023/03/22 03:49:37;;;;;;;0.47;0.47;;;;;;;6.28;100.00;99189.78;5044317;28;20022;-67
2023/03/22 03:52:04;;;;;;;0.60;0.60;;;;;;;6.25;100.00;99168.31;5044686;28;20083;-67
2023/03/22 03:54:29;;;;;;;0.50;0.50;;;;;;;6.23;100.00;99172.66;5044594;28;20021;-68
2023/03/22 03:56:55;;;;;;;0.40;0.40;;;;;;;6.24;100.00;99158.91;5044710;28;20036;-68
2023/03/22 03:59:20;;;;;;;0.40;0.40;;;;;;;6.34;100.00;99163.09;5044621;28;20021;-68
2023/03/22 04:01:49;;;;;;;0.50;0.50;;;;;;;6.40;100.00;99175.91;5044559;28;20017;-68
2023/03/22 04:04:25;;;;;;;0.40;0.40;;;;;;;6.42;100.00;99174.16;5044586;28;20026;-67
2023/03/22 04:07:01;;;;;;;0.50;0.50;;;;;;;6.43;100.00;99168.16;5044529;28;20026;-68
2023/03/22 04:09:32;;;;;;;0.40;0.40;;;;;;;6.43;100.00;99173.31;5047799;28;20024;-67
2023/03/22 04:11:58;;;;;;;0.47;0.47;;;;;;;6.44;100.00;99164.69;5063383;28;20029;-68
2023/03/22 04:14:24;;;;;;;0.40;0.40;;;;;;;6.45;100.00;99158.66;5063386;28;20433;-67
2023/03/22 04:16:51;;;;;;;0.40;0.40;;;;;;;6.44;100.00;99167.25;5047752;28;20528;-70
2023/03/22 04:19:17;;;;;;;0.45;0.45;;;;;;;6.34;100.00;99147.63;5048098;28;20374;-67
2023/03/22 04:21:42;;;;;;;0.40;0.40;;;;;;;6.41;100.00;99151.84;5047759;28;20570;-67
2023/03/22 04:24:08;;;;;;;0.40;0.40;;;;;;;6.43;100.00;99152.69;5047864;28;20089;-67
2023/03/22 04:26:34;;;;;;;0.43;0.43;;;;;;;6.30;100.00;99139.06;5047761;28;20051;-67
2023/03/22 04:29:01;;;;;;;0.50;0.50;;;;;;;6.41;100.00;99146.69;5047688;28;20021;-67
2023/03/22 04:31:31;;;;;;;0.50;0.50;;;;;;;6.38;100.00;99146.72;5046449;28;20029;-68
2023/03/22 04:33:59;;;;;;;0.40;0.40;;;;;;;6.32;100.00;99133.91;5063090;28;20029;-66
2023/03/22 04:36:30;;;;;;;0.40;0.40;;;;;;;6.33;100.00;99133.00;5047744;28;20021;-66
2023/03/22 04:38:55;;;;;;;0.40;0.40;;;;;;;6.36;100.00;99138.13;5047649;28;20025;-67
2023/03/22 04:41:21;;;;;;;0.40;0.40;;;;;;;6.36;100.00;99138.13;5047539;28;20093;-67
2023/03/22 04:43:49;;;;;;;0.40;0.40;;;;;;;6.39;100.00;99137.25;5047348;28;20029;-67
2023/03/22 04:46:15;;;;;;;0.40;0.40;;;;;;;6.23;100.00;99110.81;5062875;28;20052;-67
2023/03/22 04:48:41;;;;;;;0.40;0.40;;;;;;;6.39;100.00;99139.84;5047581;28;20025;-68
2023/03/22 04:51:09;;;;;;;0.40;0.40;;;;;;;6.31;100.00;99127.88;5062499;28;20021;-67
2023/03/22 04:53:38;;;;;;;0.40;0.40;;;;;;;6.40;100.00;99134.66;5047521;28;20017;-66
2023/03/22 04:56:06;;;;;;;0.40;0.40;;;;;;;6.42;100.00;99139.81;5045931;28;20021;-67
2023/03/22 04:58:32;;;;;;;0.40;0.40;;;;;;;6.42;100.00;99148.38;5047031;28;20025;-67
2023/03/22 05:00:58;;;;;;;0.50;0.50;;;;;;;6.28;100.00;99132.22;5047038;28;20029;-67
2023/03/22 05:03:24;;;;;;;0.40;0.40;;;;;;;6.25;100.00;99119.34;5046745;28;20101;-67
2023/03/22 05:05:55;;;;;;;0.50;0.50;;;;;;;6.39;100.00;99145.00;5047102;28;20100;-67
2023/03/22 05:08:23;;;;;;;0.50;0.50;;;;;;;6.37;100.00;99132.13;5046942;28;20029;-65
2023/03/22 05:10:51;;;;;;;0.50;0.50;;;;;;;6.34;100.00;99137.31;5062119;28;20060;-65
2023/03/22 05:13:17;;;;;;;0.40;0.40;;;;;;;6.28;100.00;99129.63;5046545;28;20056;-65
2023/03/22 05:15:42;;;;;;;0.40;0.40;;;;;;;6.26;100.00;99139.13;5047014;28;20373;-65
2023/03/22 05:18:08;;;;;;;0.40;0.40;;;;;;;6.12;100.00;99119.50;5046466;28;20045;-65
2023/03/22 05:20:33;;;;;;;0.40;0.40;;;;;;;6.13;100.00;99115.22;5046845;28;20052;-69
2023/03/22 05:23:01;;;;;;;0.40;0.40;;;;;;;6.16;100.00;99120.31;5046743;28;20029;-70
2023/03/22 05:25:27;;;;;;;0.40;0.40;;;;;;;6.06;100.00;99109.25;5046663;28;20029;-69
2023/03/22 05:27:53;;;;;;;0.50;0.50;;;;;;;6.11;100.00;99116.94;5046541;28;20036;-66
2023/03/22 05:30:19;;;;;;;0.40;0.40;;;;;;;6.09;100.00;99114.38;5062184;28;20040;-64
2023/03/22 05:32:44;;;;;;;0.40;0.40;;;;;;;5.89;100.00;99087.09;5061745;28;20013;-66
2023/03/22 05:35:10;;;;;;;0.40;0.40;;;;;;;6.04;100.00;99108.38;5046345;28;20033;-66
2023/03/22 05:37:37;;;;;;;0.50;0.50;;;;;;;6.03;100.00;99098.97;5046423;28;20055;-65
2023/03/22 05:40:04;;;;;;;0.47;0.47;;;;;;;6.05;100.00;99102.41;5046199;28;20083;-66
2023/03/22 05:42:30;;;;;;;0.43;0.43;;;;;;;6.08;100.00;99092.06;5046317;28;20051;-67
2023/03/22 05:44:56;;;;;;;0.40;0.40;;;;;;;6.01;100.00;99069.78;5046767;28;20021;-67
2023/03/22 05:47:21;;;;;;;0.88;0.88;;;;;;;6.03;100.00;99076.63;5046343;28;20032;-67
2023/03/22 05:49:47;;;;;;;0.40;0.40;;;;;;;6.12;100.00;99098.88;5046098;28;20025;-67
2023/03/22 05:52:12;;;;;;;0.50;0.50;;;;;;;6.14;100.00;99086.84;5046196;28;20077;-66
2023/03/22 05:54:37;;;;;;;0.40;0.40;;;;;;;6.15;100.00;99092.88;5046307;28;20034;-67
2023/03/22 05:57:03;;;;;;;0.40;0.40;;;;;;;6.15;100.00;99092.88;5061342;28;20029;-66
2023/03/22 05:59:28;;;;;;;0.40;0.40;;;;;;;6.20;100.00;99080.75;5046171;28;20041;-66
2023/03/22 06:01:54;;;;;;;0.50;0.50;;;;;;;6.23;100.00;99085.03;5046181;28;20481;-66
2023/03/22 06:04:19;;;;;;;0.50;0.50;;;;;;;6.28;100.00;99088.38;5046071;28;20030;-66
2023/03/22 06:06:45;;;;;;;0.40;0.40;;;;;;;6.30;100.00;99064.31;5046170;28;20026;-67
2023/03/22 06:09:13;;;;;;;0.40;0.40;;;;;;;6.34;100.00;99066.84;5045872;28;20049;-67
2023/03/22 06:11:38;;;;;;;0.40;0.40;;;;;;;6.45;100.00;99067.56;5061159;28;20017;-68
2023/03/22 06:14:04;;;;;;;0.50;0.50;;;;;;;6.49;100.00;99070.94;5045928;28;20027;-66
2023/03/22 06:16:29;;;;;;;0.40;0.40;;;;;;;6.49;100.00;99060.63;5045706;28;20045;-67
2023/03/22 06:18:55;;;;;;;0.40;0.40;;;;;;;6.54;100.00;99062.28;5045909;28;20032;-67
2023/03/22 06:21:20;;;;;;;0.40;0.40;;;;;;;6.59;100.00;99064.81;5045550;28;20017;-68
2023/03/22 06:23:45;;;;;;;0.40;0.40;;;;;;;6.61;100.00;99055.34;5045809;28;20025;-68
2023/03/22 06:26:11;;;;;;;0.40;0.40;;;;;;;6.63;100.00;99042.41;5045461;28;20079;-66
2023/03/22 06:28:36;;;;;;;0.40;0.40;;;;;;;6.66;100.00;99050.94;5045701;28;20508;-67
2023/03/22 06:31:07;;;;;;;0.40;0.40;;;;;;;6.71;100.00;99044.88;5060076;28;20065;-67
2023/03/22 06:33:34;;;;;;;0.50;0.50;;;;;;;6.72;100.00;99051.72;5045420;28;20045;-67
2023/03/22 06:36:00;;;;;;;0.50;0.50;;;;;;;6.77;100.00;99060.28;5045678;28;20079;-68
2023/03/22 06:38:26;;;;;;;0.40;0.40;;;;;;;6.69;100.00;99043.16;5045699;28;20028;-67
2023/03/22 06:40:52;;;;;;;0.40;0.40;;;;;;;6.80;100.00;99050.75;5045565;28;20056;-67
2023/03/22 06:43:17;;;;;;;0.50;0.50;;;;;;;6.84;100.00;99046.38;5045340;28;20026;-67
2023/03/22 06:45:45;;;;;;;0.40;0.40;;;;;;;6.87;100.00;99041.19;5060972;28;20052;-68
2023/03/22 06:48:11;;;;;;;0.40;0.40;;;;;;;6.90;100.00;99056.63;5045456;28;20025;-67
2023/03/22 06:50:37;;;;;;;0.40;0.40;;;;;;;6.82;100.00;99023.19;5045657;28;20480;-67
2023/03/22 06:53:04;;;;;;;0.40;0.40;;;;;;;6.86;100.00;99034.31;5044199;28;20025;-67
2023/03/22 06:55:33;;;;;;;0.40;0.40;;;;;;;6.99;100.00;99039.28;5045392;28;20037;-67
2023/03/22 06:58:00;;;;;;;0.40;0.40;;;;;;;7.00;100.00;99040.97;5045462;28;20036;-68
2023/03/22 07:00:26;;;;;;;0.40;0.40;;;;;;;7.03;100.00;99046.97;5045282;28;20021;-67
2023/03/22 07:02:51;;;;;;;0.40;0.40;;;;;;;7.04;100.00;99051.25;5043984;28;20040;-66
2023/03/22 07:05:16;;;;;;;0.50;0.50;;;;;;;7.05;100.00;99040.06;5046244;28;20526;-67
2023/03/22 07:07:42;;;;;;;1.17;1.17;;;;;;;6.99;100.00;99021.22;5045329;28;20473;-66
2023/03/22 07:10:08;;;;;;;0.40;0.40;;;;;;;7.12;100.00;99035.66;5060722;28;20112;-67
2023/03/22 07:12:34;;;;;;;0.50;0.50;;;;;;;7.14;100.00;99033.88;5045109;28;20025;-66
2023/03/22 07:15:00;;;;;;;0.40;0.40;;;;;;;7.22;100.00;99041.50;5045425;28;20048;-67
2023/03/22 07:17:25;;;;;;;0.50;0.50;;;;;;;7.22;100.00;99036.31;5045264;28;20090;-68
2023/03/22 07:19:51;;;;;;;0.50;0.50;;;;;;;7.24;100.00;99051.78;5045764;28;20041;-67
2023/03/22 07:22:16;;;;;;;0.40;0.40;;;;;;;7.18;100.00;99027.81;5045340;28;20025;-67
2023/03/22 07:24:42;;;;;;;0.50;0.50;;;;;;;7.26;100.00;99048.31;5045473;28;20454;-66
2023/03/22 07:27:07;;;;;;;0.40;0.40;;;;;;;7.26;100.00;99035.41;5045038;28;20043;-66
2023/03/22 07:29:32;;;;;;;0.40;0.40;;;;;;;7.26;100.00;99024.22;5044941;28;20033;-67
2023/03/22 07:31:58;;;;;;;0.50;0.50;;;;;;;7.13;100.00;98993.47;5045008;28;20029;-67
2023/03/22 07:34:24;;;;;;;0.40;0.40;;;;;;;7.27;100.00;99011.28;5045002;28;20048;-67
2023/03/22 07:36:50;;;;;;;0.40;0.40;;;;;;;7.32;100.00;99013.78;5045117;28;20025;-67
2023/03/22 07:39:15;;;;;;;0.40;0.40;;;;;;;7.25;100.00;98991.56;5045054;28;20072;-67
2023/03/22 07:41:41;;;;;;;0.40;0.40;;;;;;;7.26;100.00;98999.28;5045551;28;20036;-67
2023/03/22 07:44:06;;;;;;;0.40;0.40;;;;;;;7.15;100.00;98981.41;5048988;28;20041;-68
2023/03/22 07:46:32;;;;;;;0.40;0.40;;;;;;;7.38;100.00;99011.09;5048882;28;20057;-68
2023/03/22 07:48:57;;;;;;;0.40;0.40;;;;;;;7.41;100.00;99017.97;5048920;28;20034;-68
2023/03/22 07:51:23;;;;;;;0.50;0.50;;;;;;;7.42;100.00;99017.94;5048663;28;20025;-68
2023/03/22 07:53:48;;;;;;;0.40;0.40;;;;;;;7.29;100.00;98985.44;5048950;28;20025;-68
2023/03/22 07:56:14;;;;;;;0.50;0.50;;;;;;;7.43;100.00;99014.47;5048910;28;20433;-69
2023/03/22 07:58:39;;;;;;;0.50;0.50;;;;;;;7.45;100.00;99022.19;5048605;28;20493;-69
2023/03/22 08:01:09;;;;;;;0.40;0.40;;;;;;;7.46;100.00;99017.88;5048461;28;20027;-69
2023/03/22 08:03:36;;;;;;;0.40;0.40;;;;;;;7.43;100.00;99017.03;5063992;28;20104;-69
2023/03/22 08:06:06;;;;;;;0.40;0.40;;;;;;;7.42;100.00;99007.59;5048726;28;20029;-70
2023/03/22 08:08:32;;;;;;;0.40;0.40;;;;;;;7.44;100.00;99002.41;5047345;28;20112;-70
2023/03/22 08:10:58;;;;;;;0.40;0.40;;;;;;;7.43;100.00;99004.13;5048379;28;20032;-70
2023/03/22 08:13:23;;;;;;;0.40;0.40;;;;;;;7.47;100.00;99004.06;5048189;28;20026;-70
2023/03/22 08:15:49;;;;;;;0.50;0.50;;;;;;;7.42;100.00;98991.25;5047066;28;20060;-71
2023/03/22 08:18:14;;;;;;;0.40;0.40;;;;;;;7.46;100.00;99004.97;5048151;28;20103;-71
2023/03/22 08:20:40;;;;;;;0.50;0.50;;;;;;;7.24;100.00;98966.59;5046962;28;20053;-72
2023/03/22 08:23:10;;;;;;;0.40;0.40;;;;;;;7.41;100.00;98995.56;5048251;28;20047;-72
2023/03/22 08:25:35;;;;;;;0.50;0.50;;;;;;;7.25;100.00;98994.16;5046898;28;20056;-71
2023/03/22 08:28:01;;;;;;;0.40;0.40;;;;;;;7.37;100.00;99011.13;5048065;28;20021;-71
2023/03/22 08:30:27;;;;;;;0.40;0.40;;;;;;;7.31;100.00;99009.53;5047935;28;20041;-71
2023/03/22 08:32:52;;;;;;;0.40;0.40;;;;;;;7.26;100.00;99001.00;5047990;28;20048;-71
2023/03/22 08:35:17;;;;;;;0.40;0.40;;;;;;;7.10;100.00;98965.13;5063468;28;20029;-71
2023/03/22 08:37:43;;;;;;;0.40;0.40;;;;;;;6.97;100.00;98953.31;5046646;28;20022;-71
2023/03/22 08:40:09;;;;;;;0.40;0.40;;;;;;;7.04;100.00;98973.84;5047802;28;20030;-72
2023/03/22 08:42:35;;;;;;;0.40;0.40;;;;;;;7.17;100.00;99008.00;5047582;28;20108;-72
2023/03/22 08:45:01;;;;;;;0.43;0.43;;;;;;;7.11;100.00;98987.47;5046499;28;20053;-72
2023/03/22 08:47:26;;;;;;;1.08;0.98;;;;;;;6.83;100.00;98954.41;5047766;28;20055;-72
2023/03/22 08:49:52;;;;;;;0.57;0.57;;;;;;;6.82;100.00;98966.44;5063082;28;20084;-72
2023/03/22 08:52:17;;;;;;;0.40;0.40;;;;;;;7.06;100.00;98984.97;5046455;28;20036;-72
2023/03/22 08:54:43;;;;;;;0.98;0.98;;;;;;;6.89;100.00;98956.88;5047037;28;20053;-73
2023/03/22 08:57:09;;;;;;;0.40;0.40;;;;;;;6.86;100.00;98941.47;5047371;28;20039;-73
2023/03/22 08:59:35;;;;;;;0.40;0.40;;;;;;;7.06;100.00;98973.81;5046508;28;20385;-71
2023/03/22 09:02:00;;;;;;;0.40;0.40;;;;;;;7.06;100.00;98978.97;5047434;28;20033;-75
2023/03/22 09:04:26;;;;;;;0.40;0.40;;;;;;;6.90;100.00;98955.16;5047474;28;20056;-73
2023/03/22 09:06:51;;;;;;;0.40;0.40;;;;;;;6.77;100.00;98931.28;5047561;28;20425;-74
2023/03/22 09:09:17;;;;;;;0.40;0.40;;;;;;;7.04;100.00;98973.00;5047460;28;20494;-74
2023/03/22 09:11:43;;;;;;;0.50;0.50;;;;;;;6.96;100.00;98965.38;5047391;28;20045;-75
2023/03/22 09:14:09;;;;;;;0.50;0.50;;;;;;;6.92;100.00;98946.50;5047295;28;20021;-74
2023/03/22 09:16:35;;;;;;;0.40;0.40;;;;;;;6.70;100.00;98915.06;5046951;28;20485;-75
2023/03/22 09:19:01;;;;;;;0.40;0.40;;;;;;;6.92;100.00;98962.00;5047381;28;20056;-76
2023/03/22 09:21:30;;;;;;;0.50;0.50;;;;;;;6.91;100.00;98952.56;5047043;28;20387;-76
2023/03/22 09:23:56;;;;;;;0.57;0.57;;;;;;;6.75;100.00;98935.63;5047179;28;20231;-77
2023/03/22 09:26:22;;;;;;;0.47;0.47;;;;;;;6.87;100.00;98958.63;5047108;28;20021;-76
2023/03/22 09:28:48;;;;;;;0.50;0.50;;;;;;;6.85;100.00;98949.22;5045709;28;20045;-77
2023/03/22 09:31:14;;;;;;;0.40;0.40;;;;;;;6.78;100.00;98927.81;5046986;28;20027;-74
2023/03/22 09:33:40;;;;;;;0.40;0.40;;;;;;;6.86;100.00;98943.19;5046835;28;20398;-74
2023/03/22 09:36:08;;;;;;;0.40;0.40;;;;;;;6.73;100.00;98927.03;5062109;28;20025;-74
2023/03/22 09:38:34;;;;;;;0.40;0.40;;;;;;;6.79;100.00;98942.41;5046772;28;20037;-74
2023/03/22 09:41:17;;;;;;;0.40;0.40;;;;;;;6.75;100.00;98938.19;5046817;28;20021;-74
2023/03/22 09:43:48;;;;;;;0.40;0.40;;;;;;;6.63;100.00;98918.63;5046531;28;20029;-74
2023/03/22 09:46:19;;;;;;;0.63;0.63;;;;;;;6.43;100.00;98894.00;5062061;28;20108;-75
2023/03/22 09:48:46;;;;;;;0.40;0.40;;;;;;;6.59;100.00;98907.50;5045160;28;20035;-74
2023/03/22 09:51:40;;;;;;;0.40;0.40;;;;;;;6.64;100.00;98923.75;5046354;28;20045;-74
2023/03/22 09:54:20;;;;;;;0.40;0.40;;;;;;;6.56;100.00;98907.56;5046598;28;20033;-73
2023/03/22 09:57:01;;;;;;;0.77;0.77;;;;;;;6.54;100.00;98932.50;5046440;28;20028;-74
2023/03/22 09:59:35;;;;;;;0.43;0.43;;;;;;;6.55;100.00;98913.59;5046674;28;20067;-73
2023/03/22 10:02:13;;;;;;;0.40;0.40;;;;;;;6.53;100.00;98912.75;5046389;28;20033;-72
2023/03/22 10:04:39;;;;;;;0.50;0.50;;;;;;;6.55;100.00;98918.75;5046365;28;20025;-73
2023/03/22 10:07:31;;;;;;;0.40;0.40;;;;;;;6.54;100.00;98914.47;5046324;28;20098;-71
2023/03/22 10:10:03;;;;;;;0.40;0.40;;;;;;;6.49;100.00;98919.69;5061247;28;20112;-73
2023/03/22 10:12:36;;;;;;;0.75;0.75;;;;;;;6.48;100.00;98919.72;5046096;28;20458;-71
2023/03/22 10:15:09;;;;;;;0.50;0.50;;;;;;;6.47;100.00;98898.22;5046249;28;20048;-72
2023/03/22 10:17:37;;;;;;;2.70;1.50;;;;;;;6.48;100.00;98914.56;5061164;28;20050;-70
2023/03/22 10:20:16;;;;;;;0.85;0.85;;;;;;;6.44;100.00;98899.13;5045898;28;20033;-71
2023/03/22 10:22:44;;;;;;;0.40;0.40;;;;;;;6.45;100.00;98894.84;5044492;28;20044;-71
2023/03/22 10:25:17;;;;;;;0.47;0.47;;;;;;;6.53;100.00;98899.88;5045664;28;20048;-68
2023/03/22 10:27:43;;;;;;;0.40;0.40;;;;;;;6.57;100.00;98911.84;5043864;28;20035;-69
2023/03/22 10:30:19;;;;;;;0.40;0.40;;;;;;;6.56;100.00;98902.41;5044979;28;20100;-68
2023/03/22 10:33:03;;;;;;;0.50;0.50;;;;;;;6.55;100.00;98891.22;5044334;28;20017;-69
2023/03/22 10:35:30;;;;;;;0.73;0.73;;;;;;;6.59;100.00;98892.03;5045724;28;20049;-69
2023/03/22 10:38:00;;;;;;;0.40;0.40;;;;;;;6.62;100.00;98898.84;5044086;28;20029;-70
2023/03/22 10:40:31;;;;;;;0.40;0.40;;;;;;;6.67;100.00;98897.94;5045695;28;20021;-69
2023/03/22 10:43:11;;;;;;;0.40;0.40;;;;;;;6.64;100.00;98882.50;5045225;28;20466;-69
2023/03/22 10:45:38;;;;;;;0.40;0.40;;;;;;;6.56;100.00;98861.16;5045395;28;20029;-69
2023/03/22 10:48:09;;;;;;;0.40;0.40;;;;;;;6.57;100.00;98850.81;5044673;28;20025;-69
2023/03/22 10:50:38;;;;;;;0.43;0.43;;;;;;;6.75;100.00;98877.16;5044315;28;20025;-70
2023/03/22 10:53:34;;;;;;;0.50;0.50;;;;;;;6.76;100.00;98880.56;5060653;28;20018;-70
2023/03/22 10:56:00;;;;;;;0.40;0.40;;;;;;;6.63;100.00;98862.72;5060824;28;20026;-70
2023/03/22 10:58:29;;;;;;;0.47;0.47;;;;;;;6.80;100.00;98870.19;5045057;28;20026;-70
2023/03/22 11:00:58;;;;;;;0.50;0.50;;;;;;;6.85;100.00;98870.13;5045434;28;20022;-70
2023/03/22 11:03:49;;;;;;;0.40;0.40;;;;;;;6.91;100.00;98870.00;5045179;28;20017;-70
2023/03/22 11:06:17;;;;;;;0.40;0.40;;;;;;;6.93;100.00;98864.81;5045346;28;20081;-73
2023/03/22 11:08:51;;;;;;;0.40;0.40;;;;;;;6.99;100.00;98866.41;5045440;28;20025;-75
2023/03/22 11:11:26;;;;;;;0.40;0.40;;;;;;;7.02;100.00;98863.78;5058862;28;20025;-74
2023/03/22 11:14:00;;;;;;;0.40;0.40;;;;;;;7.03;100.00;98852.56;5044157;28;20017;-72
2023/03/22 11:16:26;;;;;;;0.40;0.40;;;;;;;7.05;100.00;98867.16;5043800;28;20049;-74
2023/03/22 11:18:54;;;;;;;0.50;0.50;;;;;;;7.08;100.00;98848.16;5045249;28;20029;-73
2023/03/22 11:21:27;;;;;;;0.40;0.40;;;;;;;7.06;100.00;98845.63;5060153;28;20021;-73
2023/03/22 11:23:58;;;;;;;0.85;0.85;;;;;;;7.11;100.00;98850.69;5044880;28;20014;-72
2023/03/22 11:26:29;;;;;;;0.40;0.40;;;;;;;7.13;100.00;98845.50;5045042;28;20021;-71
2023/03/22 11:29:03;;;;;;;0.40;0.40;;;;;;;7.12;100.00;98862.75;5045057;28;20022;-70
2023/03/22 11:32:10;;;;;;;0.40;0.40;;;;;;;7.07;100.00;98838.75;5045262;28;20351;-71
2023/03/22 11:34:35;;;;;;;0.40;0.40;;;;;;;6.94;100.00;98828.66;5044793;28;20040;-71
2023/03/22 11:37:07;;;;;;;0.45;0.45;;;;;;;7.04;100.00;98847.41;5045070;28;20021;-70
2023/03/22 11:39:33;;;;;;;0.50;0.50;;;;;;;7.01;100.00;98841.44;5045248;28;20021;-70
2023/03/22 11:42:02;;;;;;;0.40;0.40;;;;;;;6.72;100.00;98797.25;5044874;28;20089;-69
2023/03/22 11:44:33;;;;;;;0.40;0.40;;;;;;;6.97;100.00;98843.22;5045069;28;20108;-69